createdAt,value
2023-12-21T00:00:00.752Z,77.82
2023-12-21T00:02:27.839Z,77.84
2023-12-21T00:04:54.775Z,77.88
2023-12-21T00:07:21.702Z,77.74
2023-12-21T00:09:48.627Z,77.91
2023-12-21T00:12:15.310Z,77.74
2023-12-21T00:14:42.792Z,78.01
2023-12-21T00:17:09.826Z,77.55
2023-12-21T00:19:36.800Z,77.83
2023-12-21T00:22:04.604Z,77.85
2023-12-21T00:24:31.978Z,77.79
2023-12-21T00:26:59.240Z,77.98
2023-12-21T00:29:26.599Z,77.72
2023-12-21T00:31:54.121Z,77.71
2023-12-21T00:34:20.956Z,77.95
2023-12-21T00:36:48.514Z,77.88
2023-12-21T00:39:18.200Z,77.82
2023-12-21T00:41:44.885Z,77.89
2023-12-21T00:44:14.947Z,77.96
2023-12-21T00:46:41.737Z,78.09
2023-12-21T00:49:10.959Z,77.56
2023-12-21T00:51:38.092Z,77.69
2023-12-21T00:54:04.878Z,78.05
2023-12-21T00:56:31.877Z,77.67
2023-12-21T00:59:00.707Z,77.70
2023-12-21T01:04:22.119Z,77.73
2023-12-21T01:06:50.123Z,78.05
2023-12-21T01:09:16.844Z,77.90
2023-12-21T01:11:43.771Z,77.84
2023-12-21T01:14:10.500Z,77.70
2023-12-21T01:16:37.276Z,77.96
2023-12-21T01:19:04.434Z,77.52
2023-12-21T01:21:31.257Z,78.05
2023-12-21T01:23:58.033Z,77.61
2023-12-21T01:26:27.912Z,77.69
2023-12-21T01:28:54.731Z,77.62
2023-12-21T01:31:21.416Z,77.79
2023-12-21T01:33:48.631Z,77.97
2023-12-21T01:36:15.504Z,77.54
2023-12-21T01:38:42.234Z,77.78
2023-12-21T01:41:08.939Z,77.62
2023-12-21T01:43:36.254Z,77.49
2023-12-21T01:46:04.083Z,77.65
2023-12-21T01:48:32.006Z,77.50
2023-12-21T01:51:00.107Z,77.50
2023-12-21T01:53:27.973Z,77.63
2023-12-21T01:55:55.411Z,77.51
2023-12-21T01:58:23.347Z,77.60
2023-12-21T02:00:50.519Z,77.68
2023-12-21T02:03:17.781Z,77.38
2023-12-21T02:05:45.080Z,77.26
2023-12-21T02:08:12.194Z,77.83
2023-12-21T02:10:40.936Z,77.43
2023-12-21T02:13:08.369Z,77.53
2023-12-21T02:15:35.816Z,77.66
2023-12-21T02:18:04.656Z,77.42
2023-12-21T02:20:32.533Z,77.41
2023-12-21T02:23:01.509Z,77.38
2023-12-21T02:25:29.001Z,77.41
2023-12-21T02:27:56.032Z,77.59
2023-12-21T02:30:22.882Z,77.63
2023-12-21T02:32:50.121Z,77.68
2023-12-21T02:35:17.373Z,77.56
2023-12-21T02:37:44.137Z,77.57
2023-12-21T02:40:14.095Z,77.54
2023-12-21T02:42:40.962Z,77.63
2023-12-21T02:45:08.335Z,77.50
2023-12-21T02:47:35.091Z,77.28
2023-12-21T02:50:04.866Z,77.41
2023-12-21T02:52:31.692Z,77.67
2023-12-21T02:54:58.539Z,77.53
2023-12-21T02:57:25.691Z,77.43
2023-12-21T02:59:52.374Z,77.75
2023-12-21T03:02:19.133Z,77.41
2023-12-21T03:04:46.289Z,77.57
2023-12-21T03:07:13.007Z,77.61
2023-12-21T03:09:39.750Z,77.43
2023-12-21T03:12:07.213Z,77.40
2023-12-21T03:14:33.900Z,77.38
2023-12-21T03:17:00.687Z,77.56
2023-12-21T03:19:27.753Z,77.37
2023-12-21T03:21:54.525Z,77.56
2023-12-21T03:24:21.330Z,77.31
2023-12-21T03:26:48.350Z,77.30
2023-12-21T03:29:16.310Z,77.39
2023-12-21T03:31:43.069Z,77.19
2023-12-21T03:34:10.158Z,77.33
2023-12-21T03:36:36.992Z,77.29
2023-12-21T03:39:03.789Z,77.64
2023-12-21T03:41:30.857Z,77.41
2023-12-21T03:43:59.666Z,77.39
2023-12-21T03:46:26.490Z,77.30
2023-12-21T03:48:53.676Z,77.41
2023-12-21T03:51:20.398Z,77.36
2023-12-21T03:53:47.085Z,77.13
2023-12-21T03:56:14.034Z,77.03
2023-12-21T03:58:43.566Z,76.94
2023-12-21T04:01:10.497Z,77.21
2023-12-21T04:03:37.664Z,76.89
2023-12-21T04:06:04.808Z,77.28
2023-12-21T04:08:31.509Z,77.08
2023-12-21T04:10:58.659Z,77.16
2023-12-21T04:13:25.362Z,77.03
2023-12-21T04:15:52.657Z,76.96
2023-12-21T04:18:19.812Z,77.11
2023-12-21T04:20:46.729Z,76.89
2023-12-21T04:23:13.464Z,76.98
2023-12-21T04:25:40.481Z,77.07
2023-12-21T04:28:07.893Z,76.86
2023-12-21T04:30:34.733Z,76.99
2023-12-21T04:33:01.770Z,77.21
2023-12-21T04:35:28.784Z,77.05
2023-12-21T04:37:55.613Z,77.16
2023-12-21T04:40:22.529Z,77.40
2023-12-21T04:42:56.481Z,77.16
2023-12-21T04:45:23.798Z,77.14
2023-12-21T04:47:50.671Z,77.24
2023-12-21T04:50:17.480Z,76.84
2023-12-21T04:52:44.764Z,77.13
2023-12-21T04:55:11.752Z,77.16
2023-12-21T04:57:38.447Z,77.26
2023-12-21T05:00:09.182Z,77.27
2023-12-21T05:02:36.130Z,77.24
2023-12-21T05:05:03.535Z,77.12
2023-12-21T05:07:30.879Z,77.17
2023-12-21T05:10:00.660Z,77.69
2023-12-21T05:12:28.049Z,77.20
2023-12-21T05:14:55.336Z,77.38
2023-12-21T05:17:22.102Z,77.35
2023-12-21T05:19:48.932Z,77.54
2023-12-21T05:22:15.849Z,77.40
2023-12-21T05:24:42.842Z,77.46
2023-12-21T05:27:09.633Z,77.41
2023-12-21T05:29:36.381Z,77.63
2023-12-21T05:32:03.364Z,77.62
2023-12-21T05:34:30.283Z,77.91
2023-12-21T05:37:00.964Z,77.86
2023-12-21T05:39:28.365Z,78.00
2023-12-21T05:41:55.142Z,77.70
2023-12-21T05:44:22.671Z,77.67
2023-12-21T05:46:49.514Z,77.84
2023-12-21T05:49:16.553Z,77.68
2023-12-21T05:51:43.584Z,78.07
2023-12-21T05:54:11.688Z,78.19
2023-12-21T05:56:38.520Z,78.11
2023-12-21T05:59:05.629Z,78.31
2023-12-21T06:01:34.142Z,78.11
2023-12-21T06:04:01.276Z,78.47
2023-12-21T06:06:28.211Z,77.86
2023-12-21T06:08:54.930Z,78.45
2023-12-21T06:11:21.627Z,78.06
2023-12-21T06:13:48.671Z,77.97
2023-12-21T06:16:15.597Z,78.23
2023-12-21T06:18:42.825Z,77.95
2023-12-21T06:21:09.803Z,78.11
2023-12-21T06:23:36.509Z,78.19
2023-12-21T06:26:03.238Z,78.20
2023-12-21T06:28:30.577Z,78.08
2023-12-21T06:30:57.405Z,78.04
2023-12-21T06:33:24.376Z,78.19
2023-12-21T06:35:51.442Z,78.00
2023-12-21T06:38:18.164Z,78.12
2023-12-21T06:40:44.994Z,78.17
2023-12-21T06:43:11.977Z,77.87
2023-12-21T06:45:38.850Z,78.00
2023-12-21T06:48:06.008Z,78.09
2023-12-21T06:50:33.472Z,78.02
2023-12-21T06:53:01.119Z,77.92
2023-12-21T06:55:27.900Z,78.12
2023-12-21T06:57:54.938Z,78.22
2023-12-21T07:00:21.692Z,78.08
2023-12-21T07:02:49.825Z,77.90
2023-12-21T07:05:17.058Z,78.29
2023-12-21T07:07:43.723Z,78.14
2023-12-21T07:10:11.235Z,78.26
2023-12-21T07:12:38.419Z,78.03
2023-12-21T07:15:06.630Z,77.74
2023-12-21T07:17:33.374Z,78.03
2023-12-21T07:20:00.723Z,78.28
2023-12-21T07:22:27.518Z,78.16
2023-12-21T07:24:54.255Z,78.34
2023-12-21T07:27:21.433Z,78.42
2023-12-21T07:29:50.969Z,78.61
2023-12-21T07:32:18.047Z,78.34
2023-12-21T07:34:45.848Z,78.28
2023-12-21T07:37:14.062Z,78.32
2023-12-21T07:39:40.986Z,78.53
2023-12-21T07:42:08.205Z,78.37
2023-12-21T07:44:37.026Z,77.96
2023-12-21T07:47:03.983Z,78.22
2023-12-21T07:49:31.402Z,78.23
2023-12-21T07:51:58.141Z,77.97
2023-12-21T07:54:24.892Z,77.92
2023-12-21T07:56:52.072Z,77.93
2023-12-21T07:59:19.772Z,77.69
2023-12-21T08:01:47.616Z,77.96
2023-12-21T08:04:14.799Z,77.86
2023-12-21T08:06:41.922Z,77.82
2023-12-21T08:09:08.845Z,77.81
2023-12-21T08:11:35.754Z,77.68
2023-12-21T08:14:02.451Z,77.82
2023-12-21T08:16:29.294Z,77.47
2023-12-21T08:18:57.343Z,77.66
2023-12-21T08:21:24.222Z,77.75
2023-12-21T08:23:51.582Z,77.35
2023-12-21T08:26:18.566Z,77.58
2023-12-21T08:28:45.393Z,77.87
2023-12-21T08:31:12.479Z,77.70
2023-12-21T08:33:40.019Z,77.70
2023-12-21T08:36:07.237Z,77.60
2023-12-21T08:38:34.000Z,77.71
2023-12-21T08:41:04.050Z,77.69
2023-12-21T08:43:33.876Z,77.76
2023-12-21T08:46:00.917Z,77.38
2023-12-21T08:48:27.934Z,77.75
2023-12-21T08:50:54.789Z,77.82
2023-12-21T08:53:23.733Z,77.74
2023-12-21T08:55:50.619Z,77.66
2023-12-21T08:58:17.373Z,77.80
2023-12-21T09:00:46.016Z,77.82
2023-12-21T09:03:13.169Z,77.58
2023-12-21T09:05:40.258Z,77.91
2023-12-21T09:08:07.674Z,77.61
2023-12-21T09:10:34.796Z,77.76
2023-12-21T09:13:01.976Z,77.84
2023-12-21T09:15:30.116Z,77.69
2023-12-21T09:17:57.433Z,77.78
2023-12-21T09:20:25.536Z,77.91
2023-12-21T09:22:52.924Z,77.63
2023-12-21T09:25:20.053Z,77.29
2023-12-21T09:27:47.252Z,77.33
2023-12-21T09:30:14.970Z,77.40
2023-12-21T09:32:42.974Z,77.58
2023-12-21T09:35:11.683Z,77.37
2023-12-21T09:37:38.745Z,77.30
2023-12-21T09:40:08.233Z,77.35
2023-12-21T09:42:44.953Z,77.29
2023-12-21T09:45:13.389Z,77.13
2023-12-21T09:47:43.208Z,76.96
2023-12-21T09:50:10.424Z,76.91
2023-12-21T09:52:39.171Z,76.98
2023-12-21T09:55:09.203Z,77.13
2023-12-21T09:57:38.140Z,77.16
2023-12-21T10:00:06.489Z,76.75
2023-12-21T10:02:33.360Z,76.89
2023-12-21T10:05:00.605Z,76.84
2023-12-21T10:07:27.769Z,77.05
2023-12-21T10:09:54.901Z,77.06
2023-12-21T10:12:21.703Z,77.07
2023-12-21T10:14:58.592Z,76.79
2023-12-21T10:17:25.348Z,77.03
2023-12-21T10:19:53.191Z,76.61
2023-12-21T10:22:20.677Z,76.83
2023-12-21T10:24:51.601Z,76.82
2023-12-21T10:27:19.663Z,76.79
2023-12-21T10:29:54.678Z,76.72
2023-12-21T10:32:21.746Z,76.61
2023-12-21T10:34:51.608Z,76.59
2023-12-21T10:37:19.172Z,77.08
2023-12-21T10:39:46.057Z,76.40
2023-12-21T10:42:15.774Z,76.74
2023-12-21T10:44:49.590Z,76.70
2023-12-21T10:47:18.262Z,76.74
2023-12-21T10:49:45.998Z,76.82
2023-12-21T10:52:13.913Z,76.59
2023-12-21T10:54:44.409Z,76.71
2023-12-21T10:57:11.279Z,76.51
2023-12-21T10:59:39.404Z,76.48
2023-12-21T11:02:11.563Z,76.79
2023-12-21T11:04:40.003Z,76.89
2023-12-21T11:07:09.534Z,77.04
2023-12-21T11:09:37.047Z,76.98
2023-12-21T11:12:04.228Z,76.59
2023-12-21T11:14:31.468Z,76.61
2023-12-21T11:17:04.100Z,76.83
2023-12-21T11:19:36.157Z,76.87
2023-12-21T11:22:05.411Z,76.74
2023-12-21T11:24:32.477Z,76.48
2023-12-21T11:27:00.738Z,76.48
2023-12-21T11:29:29.694Z,76.44
2023-12-21T11:31:58.118Z,76.67
2023-12-21T11:34:36.869Z,76.48
2023-12-21T11:37:23.302Z,76.63
2023-12-21T11:39:53.802Z,76.68
2023-12-21T11:42:25.961Z,76.25
2023-12-21T11:44:55.209Z,76.58
2023-12-21T11:47:22.025Z,76.51
2023-12-21T11:49:48.931Z,76.56
2023-12-21T11:52:25.856Z,76.61
2023-12-21T11:54:52.871Z,76.53
2023-12-21T11:57:19.612Z,76.55
2023-12-21T11:59:46.680Z,76.48
2023-12-21T12:02:14.788Z,77.16
2023-12-21T12:04:48.531Z,76.83
2023-12-21T12:07:19.735Z,76.78
2023-12-21T12:09:47.154Z,76.70
2023-12-21T12:12:14.011Z,76.67
2023-12-21T12:14:40.828Z,76.61
2023-12-21T12:17:07.717Z,76.79
2023-12-21T12:19:37.774Z,76.71
2023-12-21T12:22:05.161Z,76.79
2023-12-21T12:24:32.222Z,76.88
2023-12-21T12:26:59.264Z,76.30
2023-12-21T12:29:30.178Z,76.52
2023-12-21T12:31:57.285Z,76.56
2023-12-21T12:34:25.015Z,76.41
2023-12-21T12:36:57.641Z,76.39
2023-12-21T12:39:26.155Z,76.47
2023-12-21T12:41:58.297Z,76.27
2023-12-21T12:44:28.179Z,76.35
2023-12-21T12:46:56.475Z,76.11
2023-12-21T12:49:25.164Z,76.27
2023-12-21T12:51:59.552Z,76.17
2023-12-21T12:54:35.413Z,76.14
2023-12-21T12:57:06.736Z,76.25
2023-12-21T12:59:37.634Z,76.08
2023-12-21T13:02:05.336Z,76.36
2023-12-21T13:04:32.547Z,76.01
2023-12-21T13:06:59.809Z,76.24
2023-12-21T13:09:27.751Z,76.09
2023-12-21T13:11:55.022Z,76.16
2023-12-21T13:14:22.160Z,76.19
2023-12-21T13:16:49.421Z,76.07
2023-12-21T13:19:17.586Z,75.93
2023-12-21T13:21:45.390Z,76.20
2023-12-21T13:24:12.185Z,76.05
2023-12-21T13:26:39.119Z,75.97
2023-12-21T13:29:07.799Z,75.84
2023-12-21T13:31:35.324Z,76.06
2023-12-21T13:34:02.621Z,76.06
2023-12-21T13:36:32.031Z,75.96
2023-12-21T13:38:59.426Z,75.88
2023-12-21T13:41:26.277Z,75.95
2023-12-21T13:43:53.934Z,75.80
2023-12-21T13:46:22.853Z,75.71
2023-12-21T13:48:49.765Z,75.79
2023-12-21T13:51:16.612Z,76.06
2023-12-21T13:53:43.318Z,76.08
2023-12-21T13:56:11.172Z,76.00
2023-12-21T13:58:38.250Z,76.01
2023-12-21T14:01:05.416Z,75.93
2023-12-21T14:03:32.629Z,76.14
2023-12-21T14:06:05.538Z,75.87
2023-12-21T14:08:32.907Z,75.92
2023-12-21T14:11:01.532Z,76.07
2023-12-21T14:13:28.630Z,76.01
2023-12-21T14:15:55.416Z,76.40
2023-12-21T14:18:22.602Z,76.24
2023-12-21T14:20:52.853Z,76.31
2023-12-21T14:23:22.484Z,76.21
2023-12-21T14:25:50.382Z,76.42
2023-12-21T14:28:17.332Z,76.29
2023-12-21T14:30:44.393Z,76.51
2023-12-21T14:33:11.626Z,76.38
2023-12-21T14:35:38.449Z,76.33
2023-12-21T14:38:05.290Z,76.38
2023-12-21T14:40:32.757Z,76.48
2023-12-21T14:42:59.729Z,76.66
2023-12-21T14:45:26.567Z,76.86
2023-12-21T14:47:53.733Z,76.73
2023-12-21T14:50:21.602Z,76.80
2023-12-21T14:52:48.534Z,76.88
2023-12-21T14:55:20.094Z,76.58
2023-12-21T14:57:48.059Z,76.80
2023-12-21T15:00:15.169Z,76.61
2023-12-21T15:02:42.408Z,76.84
2023-12-21T15:05:09.966Z,76.77
2023-12-21T15:07:37.480Z,76.83
2023-12-21T15:10:05.177Z,76.91
2023-12-21T15:16:20.574Z,76.98
2023-12-21T15:18:47.387Z,76.87
2023-12-21T15:21:14.494Z,76.88
2023-12-21T15:23:41.616Z,76.86
2023-12-21T15:26:08.703Z,76.73
2023-12-21T15:29:14.362Z,76.89
2023-12-21T15:32:03.642Z,76.99
2023-12-21T15:37:55.623Z,76.88
2023-12-21T15:43:37.344Z,76.82
2023-12-21T15:46:04.456Z,76.82
2023-12-21T15:48:31.205Z,76.72
2023-12-21T15:50:57.880Z,76.59
2023-12-21T15:53:26.679Z,77.00
2023-12-21T15:55:53.831Z,76.97
2023-12-21T15:58:20.714Z,76.89
2023-12-21T16:00:51.715Z,76.75
2023-12-21T16:03:18.746Z,76.88
2023-12-21T16:05:45.500Z,76.77
2023-12-21T16:08:12.583Z,76.75
2023-12-21T16:10:39.413Z,77.15
2023-12-21T16:13:06.181Z,77.00
2023-12-21T16:15:33.328Z,77.36
2023-12-21T16:18:00.075Z,77.56
2023-12-21T16:20:26.827Z,77.23
2023-12-21T16:22:53.943Z,77.29
2023-12-21T16:25:20.692Z,77.37
2023-12-21T16:27:47.401Z,77.23
2023-12-21T16:30:19.378Z,77.37
2023-12-21T16:32:46.957Z,77.50
2023-12-21T16:35:16.787Z,77.59
2023-12-21T16:37:43.854Z,77.13
2023-12-21T16:40:11.006Z,77.25
2023-12-21T16:42:37.728Z,77.45
2023-12-21T16:45:07.575Z,77.50
2023-12-21T16:47:35.784Z,77.55
2023-12-21T16:50:04.166Z,77.59
2023-12-21T16:52:31.138Z,77.64
2023-12-21T16:54:58.384Z,77.34
2023-12-21T16:57:25.876Z,77.61
2023-12-21T16:59:52.828Z,77.53
2023-12-21T17:02:19.554Z,77.63
2023-12-21T17:04:46.394Z,77.27
2023-12-21T17:07:13.326Z,77.28
2023-12-21T17:09:40.034Z,77.12
2023-12-21T17:12:07.039Z,77.22
2023-12-21T17:14:33.943Z,77.12
2023-12-21T17:17:02.085Z,77.13
2023-12-21T17:19:29.219Z,77.26
2023-12-21T17:21:56.317Z,77.06
2023-12-21T17:24:22.938Z,77.02
2023-12-21T17:26:49.554Z,77.13
2023-12-21T17:29:16.650Z,77.13
2023-12-21T17:31:43.383Z,77.39
2023-12-21T17:34:13.955Z,77.24
2023-12-21T17:36:43.375Z,77.02
2023-12-21T17:39:10.304Z,77.26
2023-12-21T17:41:36.973Z,77.08
2023-12-21T17:44:03.940Z,77.26
2023-12-21T17:46:30.634Z,76.93
2023-12-21T17:48:58.700Z,77.14
2023-12-21T17:51:26.071Z,77.06
2023-12-21T17:53:52.756Z,76.93
2023-12-21T17:56:19.390Z,77.08
2023-12-21T17:58:46.540Z,77.10
2023-12-21T18:01:13.323Z,77.04
2023-12-21T18:03:40.159Z,77.18
2023-12-21T18:06:07.486Z,77.34
2023-12-21T18:08:34.211Z,77.30
2023-12-21T18:11:01.086Z,77.19
2023-12-21T18:13:28.172Z,77.26
2023-12-21T18:15:54.828Z,77.32
2023-12-21T18:18:23.236Z,77.46
2023-12-21T18:20:50.748Z,77.50
2023-12-21T18:23:17.405Z,77.49
2023-12-21T18:25:44.111Z,77.47
2023-12-21T18:28:11.189Z,77.13
2023-12-21T18:30:37.993Z,77.19
2023-12-21T18:33:04.750Z,77.56
2023-12-21T18:35:33.230Z,77.66
2023-12-21T18:38:00.062Z,77.30
2023-12-21T18:40:27.348Z,77.45
2023-12-21T18:42:54.411Z,77.24
2023-12-21T18:45:21.087Z,77.15
2023-12-21T18:47:50.228Z,77.57
2023-12-21T18:50:17.749Z,77.24
2023-12-21T18:52:45.337Z,77.32
2023-12-21T18:55:12.166Z,77.27
2023-12-21T18:57:39.211Z,77.19
2023-12-21T19:00:06.967Z,77.02
2023-12-21T19:02:33.656Z,77.14
2023-12-21T19:05:00.712Z,77.27
2023-12-21T19:07:27.741Z,77.33
2023-12-21T19:09:54.447Z,77.26
2023-12-21T19:12:21.890Z,77.28
2023-12-21T19:14:48.607Z,77.38
2023-12-21T19:17:15.423Z,77.46
2023-12-21T19:19:42.514Z,77.48
2023-12-21T19:22:09.516Z,77.58
2023-12-21T19:24:36.390Z,77.15
2023-12-21T19:27:03.476Z,77.38
2023-12-21T19:29:30.238Z,77.51
2023-12-21T19:31:57.009Z,77.41
2023-12-21T19:34:24.035Z,77.27
2023-12-21T19:36:51.249Z,77.34
2023-12-21T19:39:17.955Z,77.02
2023-12-21T19:41:45.033Z,77.05
2023-12-21T19:44:11.956Z,76.91
2023-12-21T19:46:38.664Z,76.84
2023-12-21T19:49:05.562Z,77.23
2023-12-21T19:51:32.345Z,77.13
2023-12-21T19:53:59.569Z,77.08
2023-12-21T19:56:26.797Z,77.04
2023-12-21T19:58:54.021Z,77.21
2023-12-21T20:01:20.912Z,76.84
2023-12-21T20:03:47.911Z,76.90
2023-12-21T20:06:14.654Z,77.05
2023-12-21T20:08:42.772Z,77.26
2023-12-21T20:11:09.836Z,76.98
2023-12-21T20:13:36.836Z,77.14
2023-12-21T20:16:03.760Z,77.30
2023-12-21T20:18:30.760Z,77.38
2023-12-21T20:20:58.543Z,77.05
2023-12-21T20:23:25.229Z,77.32
2023-12-21T20:25:52.194Z,76.97
2023-12-21T20:28:18.972Z,77.11
2023-12-21T20:30:46.138Z,76.98
2023-12-21T20:33:14.455Z,77.03
2023-12-21T20:35:41.417Z,77.23
2023-12-21T20:38:08.317Z,77.37
2023-12-21T20:40:37.791Z,77.28
2023-12-21T20:43:05.694Z,77.18
2023-12-21T20:45:33.126Z,77.36
2023-12-21T20:48:00.055Z,77.60
2023-12-21T20:50:26.918Z,77.59
2023-12-21T20:52:54.525Z,77.38
2023-12-21T20:55:24.001Z,77.12
2023-12-21T20:57:51.244Z,77.40
2023-12-21T21:00:18.176Z,77.36
2023-12-21T21:02:45.125Z,77.10
2023-12-21T21:05:14.049Z,77.07
2023-12-21T21:07:41.737Z,77.15
2023-12-21T21:10:08.936Z,77.17
2023-12-21T21:12:35.747Z,77.33
2023-12-21T21:15:02.447Z,77.14
2023-12-21T21:17:29.703Z,77.26
2023-12-21T21:19:56.442Z,77.06
2023-12-21T21:22:23.323Z,77.04
2023-12-21T21:24:51.252Z,77.35
2023-12-21T21:27:17.949Z,77.08
2023-12-21T21:29:44.663Z,76.90
2023-12-21T21:32:11.775Z,76.89
2023-12-21T21:34:38.638Z,77.02
2023-12-21T21:37:05.565Z,76.90
2023-12-21T21:39:33.821Z,76.97
2023-12-21T21:42:00.953Z,77.17
2023-12-21T21:44:30.957Z,77.19
2023-12-21T21:46:58.479Z,76.68
2023-12-21T21:49:25.263Z,77.06
2023-12-21T21:51:52.094Z,76.73
2023-12-21T21:54:19.503Z,76.82
2023-12-21T21:56:46.219Z,77.08
2023-12-21T21:59:13.925Z,77.42
2023-12-21T22:01:44.500Z,77.22
2023-12-21T22:04:11.243Z,76.77
2023-12-21T22:06:38.063Z,77.01
2023-12-21T22:09:05.638Z,76.96
2023-12-21T22:11:32.314Z,76.60
2023-12-21T22:13:59.128Z,76.94
2023-12-21T22:16:26.154Z,76.76
2023-12-21T22:18:52.832Z,76.93
2023-12-21T22:21:19.626Z,76.69
2023-12-21T22:23:47.085Z,76.58
2023-12-21T22:26:23.124Z,76.48
2023-12-21T22:28:50.565Z,76.39
2023-12-21T22:31:17.757Z,76.78
2023-12-21T22:33:44.519Z,76.45
2023-12-21T22:36:12.510Z,76.63
2023-12-21T22:38:39.389Z,76.51
2023-12-21T22:41:06.302Z,76.60
2023-12-21T22:43:41.913Z,76.42
2023-12-21T22:46:10.173Z,76.12
2023-12-21T22:48:37.350Z,75.80
2023-12-21T22:51:04.364Z,76.17
2023-12-21T22:53:32.590Z,76.20
2023-12-21T22:56:00.025Z,75.85
2023-12-21T22:58:26.912Z,76.02
2023-12-21T23:00:53.811Z,75.93
2023-12-21T23:03:21.426Z,75.79
2023-12-21T23:05:48.356Z,75.65
2023-12-21T23:08:15.041Z,75.56
2023-12-21T23:10:44.644Z,75.56
2023-12-21T23:13:18.711Z,75.50
2023-12-21T23:15:46.274Z,75.68
2023-12-21T23:18:13.849Z,75.32
2023-12-21T23:20:40.705Z,75.43
2023-12-21T23:23:07.922Z,75.15
2023-12-21T23:25:34.774Z,75.22
2023-12-21T23:28:01.484Z,75.23
2023-12-21T23:30:28.401Z,75.27
2023-12-21T23:32:55.176Z,74.93
2023-12-21T23:35:23.772Z,75.13
2023-12-21T23:37:51.596Z,75.30
2023-12-21T23:40:19.051Z,75.20
2023-12-21T23:42:46.212Z,75.10
2023-12-21T23:45:13.460Z,74.96
2023-12-21T23:47:40.226Z,74.85
2023-12-21T23:50:07.995Z,74.94
2023-12-21T23:52:35.073Z,74.95
2023-12-21T23:55:01.827Z,74.82
2023-12-21T23:57:28.698Z,74.90
2023-12-21T23:59:55.693Z,74.49
